sensor_id;sensor_type;location;lat;lon;timestamp;pressure;altitude;pressure_sealevel;temperature;humidity
30516;BME280;17297;54.022;10.760;2023-02-15T00:01:52;103048.19;;;6.23;65.74
30516;BME280;17297;54.022;10.760;2023-02-15T00:04:19;103050.22;;;6.19;65.91
30516;BME280;17297;54.022;10.760;2023-02-15T00:06:45;103048.53;;;6.18;65.87
30516;BME280;17297;54.022;10.760;2023-02-15T00:09:11;103041.69;;;6.14;65.79
30516;BME280;17297;54.022;10.760;2023-02-15T00:11:38;103053.31;;;6.13;65.98
30516;BME280;17297;54.022;10.760;2023-02-15T00:14:10;103048.09;;;6.12;65.82
30516;BME280;17297;54.022;10.760;2023-02-15T00:16:37;103046.41;;;6.11;65.80
30516;BME280;17297;54.022;10.760;2023-02-15T00:19:03;103047.34;;;6.10;65.53
30516;BME280;17297;54.022;10.760;2023-02-15T00:21:31;103046.63;;;6.08;65.54
30516;BME280;17297;54.022;10.760;2023-02-15T00:23:57;103039.66;;;6.05;65.55
30516;BME280;17297;54.022;10.760;2023-02-15T00:26:24;103040.72;;;6.03;65.76
30516;BME280;17297;54.022;10.760;2023-02-15T00:28:50;103035.59;;;5.99;65.39
30516;BME280;17297;54.022;10.760;2023-02-15T00:31:15;103032.16;;;5.97;65.60
30516;BME280;17297;54.022;10.760;2023-02-15T00:33:40;103027.81;;;5.96;65.47
30516;BME280;17297;54.022;10.760;2023-02-15T00:36:08;103034.13;;;5.95;65.64
30516;BME280;17297;54.022;10.760;2023-02-15T00:38:35;103034.22;;;5.94;65.75
30516;BME280;17297;54.022;10.760;2023-02-15T00:41:03;103029.72;;;5.94;65.52
30516;BME280;17297;54.022;10.760;2023-02-15T00:43:30;103021.88;;;5.91;65.66
30516;BME280;17297;54.022;10.760;2023-02-15T00:45:56;103030.03;;;5.90;65.43
30516;BME280;17297;54.022;10.760;2023-02-15T00:48:22;103014.06;;;5.88;65.38
30516;BME280;17297;54.022;10.760;2023-02-15T00:50:53;103016.13;;;5.85;65.35
30516;BME280;17297;54.022;10.760;2023-02-15T00:53:19;103011.75;;;5.84;65.55
30516;BME280;17297;54.022;10.760;2023-02-15T00:55:45;103015.38;;;5.83;65.62
30516;BME280;17297;54.022;10.760;2023-02-15T00:58:11;103018.16;;;5.81;65.36
30516;BME280;17297;54.022;10.760;2023-02-15T01:00:37;103010.03;;;5.83;65.60
30516;BME280;17297;54.022;10.760;2023-02-15T01:03:04;103006.63;;;5.81;65.54
30516;BME280;17297;54.022;10.760;2023-02-15T01:05:30;102997.63;;;5.82;65.42
30516;BME280;17297;54.022;10.760;2023-02-15T01:07:56;102997.84;;;5.78;65.61
30516;BME280;17297;54.022;10.760;2023-02-15T01:10:22;103000.50;;;5.78;65.41
30516;BME280;17297;54.022;10.760;2023-02-15T01:12:47;102994.31;;;5.78;65.43
30516;BME280;17297;54.022;10.760;2023-02-15T01:15:13;102994.31;;;5.78;65.54
30516;BME280;17297;54.022;10.760;2023-02-15T01:17:38;102992.63;;;5.77;65.44
30516;BME280;17297;54.022;10.760;2023-02-15T01:20:06;102998.69;;;5.79;65.52
30516;BME280;17297;54.022;10.760;2023-02-15T01:22:32;102990.59;;;5.81;65.53
30516;BME280;17297;54.022;10.760;2023-02-15T01:24:58;102985.13;;;5.82;65.27
30516;BME280;17297;54.022;10.760;2023-02-15T01:27:23;102977.09;;;5.82;65.60
30516;BME280;17297;54.022;10.760;2023-02-15T01:29:48;102978.00;;;5.83;65.55
30516;BME280;17297;54.022;10.760;2023-02-15T01:32:14;102981.50;;;5.83;65.65
30516;BME280;17297;54.022;10.760;2023-02-15T01:34:42;102976.16;;;5.83;65.54
30516;BME280;17297;54.022;10.760;2023-02-15T01:37:07;102975.31;;;5.83;65.54
30516;BME280;17297;54.022;10.760;2023-02-15T01:39:33;102970.06;;;5.81;65.44
30516;BME280;17297;54.022;10.760;2023-02-15T01:41:59;102972.88;;;5.79;65.30
30516;BME280;17297;54.022;10.760;2023-02-15T01:47:12;102962.47;;;5.75;65.46
30516;BME280;17297;54.022;10.760;2023-02-15T01:49:38;102959.81;;;5.75;65.24
30516;BME280;17297;54.022;10.760;2023-02-15T01:52:07;102958.13;;;5.74;65.31
30516;BME280;17297;54.022;10.760;2023-02-15T01:54:34;102952.00;;;5.72;65.42
30516;BME280;17297;54.022;10.760;2023-02-15T01:57:05;102949.34;;;5.72;65.47
30516;BME280;17297;54.022;10.760;2023-02-15T01:59:35;102950.94;;;5.74;65.57
30516;BME280;17297;54.022;10.760;2023-02-15T02:02:04;102945.59;;;5.74;65.54
30516;BME280;17297;54.022;10.760;2023-02-15T02:04:41;102941.88;;;5.77;65.57
30516;BME280;17297;54.022;10.760;2023-02-15T02:07:09;102952.44;;;5.78;65.59
30516;BME280;17297;54.022;10.760;2023-02-15T02:09:36;102945.41;;;5.77;65.69
30516;BME280;17297;54.022;10.760;2023-02-15T02:12:02;102948.06;;;5.77;65.68
30516;BME280;17297;54.022;10.760;2023-02-15T02:14:28;102948.16;;;5.76;65.69
30516;BME280;17297;54.022;10.760;2023-02-15T02:17:22;102930.66;;;5.72;65.54
30516;BME280;17297;54.022;10.760;2023-02-15T02:23:35;102935.56;;;5.65;65.61
30516;BME280;17297;54.022;10.760;2023-02-15T02:26:24;102933.75;;;5.66;65.64
30516;BME280;17297;54.022;10.760;2023-02-15T02:34:30;102918.91;;;5.62;65.29
30516;BME280;17297;54.022;10.760;2023-02-15T02:37:34;102917.41;;;5.57;65.34
30516;BME280;17297;54.022;10.760;2023-02-15T02:40:01;102912.41;;;5.53;65.37
30516;BME280;17297;54.022;10.760;2023-02-15T02:42:41;102909.84;;;5.51;65.65
30516;BME280;17297;54.022;10.760;2023-02-15T02:45:25;102906.31;;;5.51;65.56
30516;BME280;17297;54.022;10.760;2023-02-15T02:48:07;102903.75;;;5.49;65.65
30516;BME280;17297;54.022;10.760;2023-02-15T02:50:34;102903.75;;;5.49;65.50
30516;BME280;17297;54.022;10.760;2023-02-15T02:52:59;102892.22;;;5.49;65.17
30516;BME280;17297;54.022;10.760;2023-02-15T02:55:30;102890.72;;;5.45;65.21
30516;BME280;17297;54.022;10.760;2023-02-15T02:58:03;102884.66;;;5.43;65.37
30516;BME280;17297;54.022;10.760;2023-02-15T03:00:49;102890.06;;;5.41;65.32
30516;BME280;17297;54.022;10.760;2023-02-15T03:03:30;102876.84;;;5.40;65.52
30516;BME280;17297;54.022;10.760;2023-02-15T03:06:00;102872.34;;;5.40;65.48
30516;BME280;17297;54.022;10.760;2023-02-15T03:08:35;102872.44;;;5.39;65.42
30516;BME280;17297;54.022;10.760;2023-02-15T03:11:03;102868.94;;;5.38;65.34
30516;BME280;17297;54.022;10.760;2023-02-15T03:13:29;102869.78;;;5.39;65.10
30516;BME280;17297;54.022;10.760;2023-02-15T03:15:56;102869.78;;;5.39;65.20
30516;BME280;17297;54.022;10.760;2023-02-15T03:18:49;102869.06;;;5.37;65.25
30516;BME280;17297;54.022;10.760;2023-02-15T03:21:27;102868.22;;;5.36;65.41
30516;BME280;17297;54.022;10.760;2023-02-15T03:24:17;102863.94;;;5.33;65.19
30516;BME280;17297;54.022;10.760;2023-02-15T03:26:49;102856.00;;;5.32;65.19
30516;BME280;17297;54.022;10.760;2023-02-15T03:29:17;102856.13;;;5.30;65.11
30516;BME280;17297;54.022;10.760;2023-02-15T03:31:46;102848.22;;;5.29;65.16
30516;BME280;17297;54.022;10.760;2023-02-15T03:34:16;102845.78;;;5.26;65.34
30516;BME280;17297;54.022;10.760;2023-02-15T03:36:47;102843.09;;;5.26;65.19
30516;BME280;17297;54.022;10.760;2023-02-15T03:39:20;102836.06;;;5.25;65.35
30516;BME280;17297;54.022;10.760;2023-02-15T03:44:54;102840.56;;;5.24;65.26
30516;BME280;17297;54.022;10.760;2023-02-15T03:47:27;102838.72;;;5.25;65.25
30516;BME280;17297;54.022;10.760;2023-02-15T03:50:02;102834.38;;;5.24;65.30
30516;BME280;17297;54.022;10.760;2023-02-15T03:52:30;102838.84;;;5.23;65.14
30516;BME280;17297;54.022;10.760;2023-02-15T03:54:58;102837.97;;;5.23;65.16
30516;BME280;17297;54.022;10.760;2023-02-15T03:57:28;102838.94;;;5.22;65.18
30516;BME280;17297;54.022;10.760;2023-02-15T04:03:30;102845.25;;;5.21;65.31
30516;BME280;17297;54.022;10.760;2023-02-15T04:06:00;102848.88;;;5.20;65.17
30516;BME280;17297;54.022;10.760;2023-02-15T04:08:27;102846.94;;;5.22;65.25
30516;BME280;17297;54.022;10.760;2023-02-15T04:11:12;102845.13;;;5.22;65.26
30516;BME280;17297;54.022;10.760;2023-02-15T04:13:38;102841.53;;;5.23;65.33
30516;BME280;17297;54.022;10.760;2023-02-15T04:16:03;102836.06;;;5.25;65.16
30516;BME280;17297;54.022;10.760;2023-02-15T04:18:42;102834.03;;;5.28;65.27
30516;BME280;17297;54.022;10.760;2023-02-15T04:21:28;102834.66;;;5.32;65.31
30516;BME280;17297;54.022;10.760;2023-02-15T04:24:14;102829.22;;;5.33;65.15
30516;BME280;17297;54.022;10.760;2023-02-15T04:26:59;102817.59;;;5.35;65.17
30516;BME280;17297;54.022;10.760;2023-02-15T04:29:26;102813.84;;;5.37;65.25
30516;BME280;17297;54.022;10.760;2023-02-15T04:31:54;102804.88;;;5.38;65.48
30516;BME280;17297;54.022;10.760;2023-02-15T04:34:20;102803.81;;;5.41;65.40
30516;BME280;17297;54.022;10.760;2023-02-15T04:36:46;102803.72;;;5.42;65.44
30516;BME280;17297;54.022;10.760;2023-02-15T04:39:15;102801.78;;;5.44;65.37
30516;BME280;17297;54.022;10.760;2023-02-15T04:41:41;102800.81;;;5.45;65.31
30516;BME280;17297;54.022;10.760;2023-02-15T04:44:06;102794.50;;;5.46;65.37
30516;BME280;17297;54.022;10.760;2023-02-15T04:46:32;102797.19;;;5.46;65.41
30516;BME280;17297;54.022;10.760;2023-02-15T04:48:57;102795.38;;;5.47;65.45
30516;BME280;17297;54.022;10.760;2023-02-15T04:51:23;102788.97;;;5.49;65.63
30516;BME280;17297;54.022;10.760;2023-02-15T04:53:49;102792.25;;;5.53;65.58
30516;BME280;17297;54.022;10.760;2023-02-15T04:56:18;102785.00;;;5.55;65.67
30516;BME280;17297;54.022;10.760;2023-02-15T04:58:43;102789.38;;;5.56;65.73
30516;BME280;17297;54.022;10.760;2023-02-15T05:01:09;102785.72;;;5.57;65.53
30516;BME280;17297;54.022;10.760;2023-02-15T05:03:35;102791.91;;;5.57;65.67
30516;BME280;17297;54.022;10.760;2023-02-15T05:06:01;102798.00;;;5.60;65.70
30516;BME280;17297;54.022;10.760;2023-02-15T05:08:26;102792.66;;;5.60;65.84
30516;BME280;17297;54.022;10.760;2023-02-15T05:10:51;102795.25;;;5.61;65.99
30516;BME280;17297;54.022;10.760;2023-02-15T05:13:17;102786.25;;;5.62;65.88
30516;BME280;17297;54.022;10.760;2023-02-15T05:15:47;102785.28;;;5.63;65.76
30516;BME280;17297;54.022;10.760;2023-02-15T05:18:13;102786.25;;;5.62;66.04
30516;BME280;17297;54.022;10.760;2023-02-15T05:20:39;102781.75;;;5.63;66.04
30516;BME280;17297;54.022;10.760;2023-02-15T05:23:04;102786.13;;;5.64;65.92
30516;BME280;17297;54.022;10.760;2023-02-15T05:25:29;102787.94;;;5.63;65.87
30516;BME280;17297;54.022;10.760;2023-02-15T05:28:13;102793.19;;;5.65;66.12
30516;BME280;17297;54.022;10.760;2023-02-15T05:31:31;102793.19;;;5.65;66.02
30516;BME280;17297;54.022;10.760;2023-02-15T05:33:37;102789.56;;;5.66;65.84
30516;BME280;17297;54.022;10.760;2023-02-15T05:36:03;102783.38;;;5.65;66.15
30516;BME280;17297;54.022;10.760;2023-02-15T05:38:29;102781.53;;;5.66;66.00
30516;BME280;17297;54.022;10.760;2023-02-15T05:40:55;102774.38;;;5.66;66.18
30516;BME280;17297;54.022;10.760;2023-02-15T05:43:21;102773.44;;;5.67;66.22
30516;BME280;17297;54.022;10.760;2023-02-15T05:45:48;102770.75;;;5.67;66.24
30516;BME280;17297;54.022;10.760;2023-02-15T05:48:14;102774.28;;;5.68;66.16
30516;BME280;17297;54.022;10.760;2023-02-15T05:50:39;102773.44;;;5.67;66.33
30516;BME280;17297;54.022;10.760;2023-02-15T05:53:05;102768.81;;;5.69;66.16
30516;BME280;17297;54.022;10.760;2023-02-15T05:55:30;102767.97;;;5.69;66.18
30516;BME280;17297;54.022;10.760;2023-02-15T05:57:55;102767.97;;;5.69;66.14
30516;BME280;17297;54.022;10.760;2023-02-15T06:00:21;102761.78;;;5.68;66.17
30516;BME280;17297;54.022;10.760;2023-02-15T06:02:46;102756.44;;;5.68;66.28
30516;BME280;17297;54.022;10.760;2023-02-15T06:05:11;102758.13;;;5.69;66.41
30516;BME280;17297;54.022;10.760;2023-02-15T06:07:37;102758.97;;;5.70;66.32
30516;BME280;17297;54.022;10.760;2023-02-15T06:10:03;102754.53;;;5.70;66.41
30516;BME280;17297;54.022;10.760;2023-02-15T06:12:29;102750.97;;;5.70;66.41
30516;BME280;17297;54.022;10.760;2023-02-15T06:14:55;102752.69;;;5.71;66.36
30516;BME280;17297;54.022;10.760;2023-02-15T06:17:20;102749.19;;;5.70;66.35
30516;BME280;17297;54.022;10.760;2023-02-15T06:19:47;102747.22;;;5.72;66.24
30516;BME280;17297;54.022;10.760;2023-02-15T06:22:12;102757.91;;;5.72;66.36
30516;BME280;17297;54.022;10.760;2023-02-15T06:24:39;102752.56;;;5.72;66.32
30516;BME280;17297;54.022;10.760;2023-02-15T06:27:05;102756.09;;;5.73;66.53
30516;BME280;17297;54.022;10.760;2023-02-15T06:29:30;102756.97;;;5.73;66.51
30516;BME280;17297;54.022;10.760;2023-02-15T06:31:55;102749.91;;;5.72;66.56
30516;BME280;17297;54.022;10.760;2023-02-15T06:34:21;102760.47;;;5.74;66.55
30516;BME280;17297;54.022;10.760;2023-02-15T06:36:46;102763.16;;;5.74;66.45
30516;BME280;17297;54.022;10.760;2023-02-15T06:39:11;102755.13;;;5.74;66.45
30516;BME280;17297;54.022;10.760;2023-02-15T06:41:37;102756.00;;;5.74;66.61
30516;BME280;17297;54.022;10.760;2023-02-15T06:44:02;102757.81;;;5.74;66.45
30516;BME280;17297;54.022;10.760;2023-02-15T06:46:28;102761.31;;;5.74;66.43
30516;BME280;17297;54.022;10.760;2023-02-15T06:48:53;102766.66;;;5.74;66.46
30516;BME280;17297;54.022;10.760;2023-02-15T06:51:18;102764.09;;;5.73;66.46
30516;BME280;17297;54.022;10.760;2023-02-15T06:53:44;102766.66;;;5.74;66.73
30516;BME280;17297;54.022;10.760;2023-02-15T06:56:10;102763.03;;;5.75;66.50
30516;BME280;17297;54.022;10.760;2023-02-15T06:58:36;102759.50;;;5.75;66.64
30516;BME280;17297;54.022;10.760;2023-02-15T07:01:02;102757.81;;;5.74;66.52
30516;BME280;17297;54.022;10.760;2023-02-15T07:03:28;102759.50;;;5.75;66.58
30516;BME280;17297;54.022;10.760;2023-02-15T07:05:55;102751.50;;;5.75;66.55
30516;BME280;17297;54.022;10.760;2023-02-15T07:08:21;102757.81;;;5.74;66.39
30516;BME280;17297;54.022;10.760;2023-02-15T07:10:48;102755.00;;;5.75;66.68
30516;BME280;17297;54.022;10.760;2023-02-15T07:13:14;102748.81;;;5.75;66.59
30516;BME280;17297;54.022;10.760;2023-02-15T07:15:39;102748.94;;;5.73;66.56
30516;BME280;17297;54.022;10.760;2023-02-15T07:18:05;102753.41;;;5.73;66.71
30516;BME280;17297;54.022;10.760;2023-02-15T07:20:30;102756.00;;;5.74;66.61
30516;BME280;17297;54.022;10.760;2023-02-15T07:23:01;102741.66;;;5.75;66.78
30516;BME280;17297;54.022;10.760;2023-02-15T07:25:27;102754.06;;;5.76;66.75
30516;BME280;17297;54.022;10.760;2023-02-15T07:27:59;102746.06;;;5.76;66.75
30516;BME280;17297;54.022;10.760;2023-02-15T07:30:28;102744.22;;;5.77;66.68
30516;BME280;17297;54.022;10.760;2023-02-15T07:32:57;102737.16;;;5.76;66.62
30516;BME280;17297;54.022;10.760;2023-02-15T07:35:52;102731.09;;;5.74;66.48
30516;BME280;17297;54.022;10.760;2023-02-15T07:38:18;102728.44;;;5.74;66.54
30516;BME280;17297;54.022;10.760;2023-02-15T07:40:44;102736.31;;;5.75;66.67
30516;BME280;17297;54.022;10.760;2023-02-15T07:43:10;102725.63;;;5.75;66.56
30516;BME280;17297;54.022;10.760;2023-02-15T07:45:35;102727.38;;;5.76;66.74
30516;BME280;17297;54.022;10.760;2023-02-15T07:48:02;102716.69;;;5.76;66.59
30516;BME280;17297;54.022;10.760;2023-02-15T07:50:27;102717.53;;;5.77;66.70
30516;BME280;17297;54.022;10.760;2023-02-15T07:52:53;102720.06;;;5.78;66.65
30516;BME280;17297;54.022;10.760;2023-02-15T07:55:18;102714.72;;;5.78;66.58
30516;BME280;17297;54.022;10.760;2023-02-15T07:57:45;102709.38;;;5.78;66.80
30516;BME280;17297;54.022;10.760;2023-02-15T08:00:12;102703.19;;;5.78;66.72
30516;BME280;17297;54.022;10.760;2023-02-15T08:02:38;102709.38;;;5.78;66.60
30516;BME280;17297;54.022;10.760;2023-02-15T08:05:04;102710.13;;;5.81;66.58
30516;BME280;17297;54.022;10.760;2023-02-15T08:07:30;102713.66;;;5.81;66.78
30516;BME280;17297;54.022;10.760;2023-02-15T08:09:55;102716.09;;;5.84;66.79
30516;BME280;17297;54.022;10.760;2023-02-15T08:12:21;102708.22;;;5.83;66.52
30516;BME280;17297;54.022;10.760;2023-02-15T08:14:46;102707.22;;;5.84;66.59
30516;BME280;17297;54.022;10.760;2023-02-15T08:17:11;102706.38;;;5.83;66.75
30516;BME280;17297;54.022;10.760;2023-02-15T08:19:37;102702.88;;;5.83;66.79
30516;BME280;17297;54.022;10.760;2023-02-15T08:22:05;102705.41;;;5.84;66.80
30516;BME280;17297;54.022;10.760;2023-02-15T08:24:36;102702.75;;;5.84;66.64
30516;BME280;17297;54.022;10.760;2023-02-15T08:27:06;102698.25;;;5.85;66.80
30516;BME280;17297;54.022;10.760;2023-02-15T08:29:33;102696.41;;;5.85;66.65
30516;BME280;17297;54.022;10.760;2023-02-15T08:32:02;102698.16;;;5.86;66.68
30516;BME280;17297;54.022;10.760;2023-02-15T08:34:34;102690.22;;;5.85;66.69
30516;BME280;17297;54.022;10.760;2023-02-15T08:37:00;102699.00;;;5.87;66.60
30516;BME280;17297;54.022;10.760;2023-02-15T08:39:26;102692.81;;;5.86;66.75
30516;BME280;17297;54.022;10.760;2023-02-15T08:41:51;102690.00;;;5.88;66.80
30516;BME280;17297;54.022;10.760;2023-02-15T08:44:18;102680.91;;;5.90;66.61
30516;BME280;17297;54.022;10.760;2023-02-15T08:46:45;102669.38;;;5.90;66.75
30516;BME280;17297;54.022;10.760;2023-02-15T08:49:13;102670.22;;;5.90;66.79
30516;BME280;17297;54.022;10.760;2023-02-15T08:51:40;102675.38;;;5.93;66.88
30516;BME280;17297;54.022;10.760;2023-02-15T08:54:08;102674.53;;;5.93;66.91
30516;BME280;17297;54.022;10.760;2023-02-15T08:56:37;102669.91;;;5.95;66.85
30516;BME280;17297;54.022;10.760;2023-02-15T08:59:04;102671.63;;;5.96;66.75
30516;BME280;17297;54.022;10.760;2023-02-15T09:01:31;102666.16;;;5.97;66.80
30516;BME280;17297;54.022;10.760;2023-02-15T09:04:02;102671.38;;;5.99;66.69
30516;BME280;17297;54.022;10.760;2023-02-15T09:06:29;102668.59;;;6.00;66.68
30516;BME280;17297;54.022;10.760;2023-02-15T09:08:56;102664.09;;;6.01;66.75
30516;BME280;17297;54.022;10.760;2023-02-15T09:11:29;102670.31;;;6.01;66.78
30516;BME280;17297;54.022;10.760;2023-02-15T09:14:00;102675.53;;;6.03;66.96
30516;BME280;17297;54.022;10.760;2023-02-15T09:16:28;102670.94;;;6.05;66.86
30516;BME280;17297;54.022;10.760;2023-02-15T09:18:54;102668.97;;;6.07;66.92
30516;BME280;17297;54.022;10.760;2023-02-15T09:21:22;102668.88;;;6.09;66.79
30516;BME280;17297;54.022;10.760;2023-02-15T09:23:51;102667.88;;;6.10;66.78
30516;BME280;17297;54.022;10.760;2023-02-15T09:26:19;102659.63;;;6.13;67.01
30516;BME280;17297;54.022;10.760;2023-02-15T09:28:45;102655.03;;;6.15;66.74
30516;BME280;17297;54.022;10.760;2023-02-15T09:31:12;102652.47;;;6.13;66.73
30516;BME280;17297;54.022;10.760;2023-02-15T09:33:39;102658.94;;;6.11;66.74
30516;BME280;17297;54.022;10.760;2023-02-15T09:36:05;102654.44;;;6.11;66.89
30516;BME280;17297;54.022;10.760;2023-02-15T09:38:31;102652.59;;;6.12;66.79
30516;BME280;17297;54.022;10.760;2023-02-15T09:44:03;102651.53;;;6.14;66.92
30516;BME280;17297;54.022;10.760;2023-02-15T09:56:58;102642.94;;;6.33;66.98
30516;BME280;17297;54.022;10.760;2023-02-15T09:59:45;102638.19;;;6.37;67.08
30516;BME280;17297;54.022;10.760;2023-02-15T10:02:32;102637.97;;;6.40;67.09
30516;BME280;17297;54.022;10.760;2023-02-15T10:07:49;102640.75;;;6.50;67.12
30516;BME280;17297;54.022;10.760;2023-02-15T10:10:24;102644.03;;;6.53;67.12
30516;BME280;17297;54.022;10.760;2023-02-15T10:13:13;102647.31;;;6.57;67.06
30516;BME280;17297;54.022;10.760;2023-02-15T10:18:50;102640.53;;;6.64;67.15
30516;BME280;17297;54.022;10.760;2023-02-15T10:26:49;102637.00;;;6.75;67.25
30516;BME280;17297;54.022;10.760;2023-02-15T10:29:38;102642.00;;;6.79;67.34
30516;BME280;17297;54.022;10.760;2023-02-15T10:32:16;102647.81;;;6.84;67.23
30516;BME280;17297;54.022;10.760;2023-02-15T10:35:20;102647.56;;;6.87;67.23
30516;BME280;17297;54.022;10.760;2023-02-15T10:40:28;102647.47;;;6.89;67.17
30516;BME280;17297;54.022;10.760;2023-02-15T10:51:27;102646.09;;;6.94;67.27
30516;BME280;17297;54.022;10.760;2023-02-15T10:54:34;102639.06;;;6.93;67.06
30516;BME280;17297;54.022;10.760;2023-02-15T10:57:03;102639.06;;;6.93;67.13
30516;BME280;17297;54.022;10.760;2023-02-15T10:59:50;102640.03;;;6.92;67.28
30516;BME280;17297;54.022;10.760;2023-02-15T11:02:38;102627.38;;;6.94;67.07
30516;BME280;17297;54.022;10.760;2023-02-15T11:05:33;102617.53;;;6.95;67.18
30516;BME280;17297;54.022;10.760;2023-02-15T11:08:03;102626.41;;;6.96;67.19
30516;BME280;17297;54.022;10.760;2023-02-15T11:10:51;102617.41;;;6.97;67.05
30516;BME280;17297;54.022;10.760;2023-02-15T11:13:19;102609.13;;;7.00;67.21
30516;BME280;17297;54.022;10.760;2023-02-15T11:15:58;102609.13;;;7.00;67.17
30516;BME280;17297;54.022;10.760;2023-02-15T11:18:39;102609.88;;;7.02;67.21
30516;BME280;17297;54.022;10.760;2023-02-15T11:21:17;102599.03;;;7.03;67.08
30516;BME280;17297;54.022;10.760;2023-02-15T11:23:44;102601.59;;;7.05;67.19
30516;BME280;17297;54.022;10.760;2023-02-15T11:26:28;102597.09;;;7.05;67.31
30516;BME280;17297;54.022;10.760;2023-02-15T11:31:54;102587.81;;;7.09;67.16
30516;BME280;17297;54.022;10.760;2023-02-15T11:34:29;102592.22;;;7.10;67.32
30516;BME280;17297;54.022;10.760;2023-02-15T11:36:58;102586.47;;;7.15;66.98
30516;BME280;17297;54.022;10.760;2023-02-15T11:39:26;102599.84;;;7.15;67.17
30516;BME280;17297;54.022;10.760;2023-02-15T11:41:57;102585.47;;;7.16;67.25
30516;BME280;17297;54.022;10.760;2023-02-15T11:44:31;102582.69;;;7.17;67.29
30516;BME280;17297;54.022;10.760;2023-02-15T11:46:58;102593.25;;;7.19;67.32
30516;BME280;17297;54.022;10.760;2023-02-15T11:49:36;102588.66;;;7.21;67.40
30516;BME280;17297;54.022;10.760;2023-02-15T11:52:06;102597.41;;;7.23;67.17
30516;BME280;17297;54.022;10.760;2023-02-15T11:54:36;102581.34;;;7.23;67.17
30516;BME280;17297;54.022;10.760;2023-02-15T11:57:15;102585.72;;;7.24;67.24
30516;BME280;17297;54.022;10.760;2023-02-15T11:59:47;102581.94;;;7.27;67.13
30516;BME280;17297;54.022;10.760;2023-02-15T12:02:20;102573.78;;;7.28;67.36
30516;BME280;17297;54.022;10.760;2023-02-15T12:04:55;102574.50;;;7.30;67.25
30516;BME280;17297;54.022;10.760;2023-02-15T12:07:33;102574.25;;;7.33;67.14
30516;BME280;17297;54.022;10.760;2023-02-15T12:10:04;102563.53;;;7.33;67.31
30516;BME280;17297;54.022;10.760;2023-02-15T12:12:37;102555.25;;;7.36;67.15
30516;BME280;17297;54.022;10.760;2023-02-15T12:15:07;102550.63;;;7.38;67.42
30516;BME280;17297;54.022;10.760;2023-02-15T12:20:28;102549.38;;;7.43;67.45
30516;BME280;17297;54.022;10.760;2023-02-15T12:23:02;102553.66;;;7.45;67.46
30516;BME280;17297;54.022;10.760;2023-02-15T12:25:39;102549.00;;;7.47;67.29
30516;BME280;17297;54.022;10.760;2023-02-15T12:31:32;102541.44;;;7.52;67.47
30516;BME280;17297;54.022;10.760;2023-02-15T12:34:07;102529.72;;;7.53;67.44
30516;BME280;17297;54.022;10.760;2023-02-15T12:36:42;102524.25;;;7.55;67.24
30516;BME280;17297;54.022;10.760;2023-02-15T12:41:41;102530.44;;;7.55;67.24
30516;BME280;17297;54.022;10.760;2023-02-15T12:44:17;102537.66;;;7.55;67.39
30516;BME280;17297;54.022;10.760;2023-02-15T12:47:06;102526.78;;;7.56;67.32
30516;BME280;17297;54.022;10.760;2023-02-15T12:49:33;102527.53;;;7.58;67.32
30516;BME280;17297;54.022;10.760;2023-02-15T12:52:23;102520.22;;;7.60;67.46
30516;BME280;17297;54.022;10.760;2023-02-15T12:54:46;102513.88;;;7.61;67.45
30516;BME280;17297;54.022;10.760;2023-02-15T13:00:03;102520.78;;;7.64;67.52
30516;BME280;17297;54.022;10.760;2023-02-15T13:02:42;102508.25;;;7.64;67.57
30516;BME280;17297;54.022;10.760;2023-02-15T13:05:31;102502.63;;;7.68;67.50
30516;BME280;17297;54.022;10.760;2023-02-15T13:08:00;102508.84;;;7.68;67.38
30516;BME280;17297;54.022;10.760;2023-02-15T13:10:29;102509.69;;;7.69;67.43
30516;BME280;17297;54.022;10.760;2023-02-15T13:12:56;102502.38;;;7.71;67.56
30516;BME280;17297;54.022;10.760;2023-02-15T13:15:30;102500.53;;;7.71;67.66
30516;BME280;17297;54.022;10.760;2023-02-15T13:17:59;102503.09;;;7.73;67.36
30516;BME280;17297;54.022;10.760;2023-02-15T13:20:26;102495.91;;;7.73;67.44
30516;BME280;17297;54.022;10.760;2023-02-15T13:22:58;102499.44;;;7.74;67.69
30516;BME280;17297;54.022;10.760;2023-02-15T13:25:44;102494.78;;;7.76;67.65
30516;BME280;17297;54.022;10.760;2023-02-15T13:28:14;102496.47;;;7.77;67.56
30516;BME280;17297;54.022;10.760;2023-02-15T13:30:43;102490.28;;;7.76;67.48
30516;BME280;17297;54.022;10.760;2023-02-15T13:33:23;102490.13;;;7.78;67.68
30516;BME280;17297;54.022;10.760;2023-02-15T13:36:16;102483.94;;;7.77;67.64
30516;BME280;17297;54.022;10.760;2023-02-15T13:41:48;102466.03;;;7.78;67.45
30516;BME280;17297;54.022;10.760;2023-02-15T13:47:08;102468.00;;;7.76;67.68
30516;BME280;17297;54.022;10.760;2023-02-15T13:49:52;102466.28;;;7.75;67.61
30516;BME280;17297;54.022;10.760;2023-02-15T13:52:23;102467.84;;;7.77;67.46
30516;BME280;17297;54.022;10.760;2023-02-15T13:55:23;102461.78;;;7.75;67.48
30516;BME280;17297;54.022;10.760;2023-02-15T13:58:14;102451.19;;;7.74;67.74
30516;BME280;17297;54.022;10.760;2023-02-15T14:01:08;102454.00;;;7.72;67.59
30516;BME280;17297;54.022;10.760;2023-02-15T14:06:40;102463.03;;;7.71;67.74
30516;BME280;17297;54.022;10.760;2023-02-15T14:17:35;102454.16;;;7.71;67.62
30516;BME280;17297;54.022;10.760;2023-02-15T14:20:15;102456.81;;;7.71;67.82
30516;BME280;17297;54.022;10.760;2023-02-15T14:22:46;102461.06;;;7.73;67.67
30516;BME280;17297;54.022;10.760;2023-02-15T14:30:38;102456.56;;;7.74;67.86
30516;BME280;17297;54.022;10.760;2023-02-15T14:35:45;102462.03;;;7.72;67.80
30516;BME280;17297;54.022;10.760;2023-02-15T14:38:21;102457.66;;;7.71;67.91
30516;BME280;17297;54.022;10.760;2023-02-15T14:41:04;102452.31;;;7.71;67.83
30516;BME280;17297;54.022;10.760;2023-02-15T14:47:04;102453.31;;;7.70;67.85